createdAt,value
2023-12-02T00:00:44.008Z,1004.29
2023-12-02T00:01:44.078Z,1004.26
2023-12-02T00:02:43.982Z,1004.25
2023-12-02T00:03:44.090Z,1004.20
2023-12-02T00:04:44.005Z,1004.21
2023-12-02T00:05:43.962Z,1004.19
2023-12-02T00:06:43.957Z,1004.18
2023-12-02T00:07:43.943Z,1004.16
2023-12-02T00:08:43.937Z,1004.18
2023-12-02T00:09:43.931Z,1004.18
2023-12-02T00:10:43.924Z,1004.18
2023-12-02T00:11:43.910Z,1004.22
2023-12-02T00:12:43.892Z,1004.20
2023-12-02T00:13:43.896Z,1004.18
2023-12-02T00:14:43.878Z,1004.22
2023-12-02T00:15:43.894Z,1004.29
2023-12-02T00:16:43.868Z,1004.24
2023-12-02T00:17:43.903Z,1004.22
2023-12-02T00:18:43.903Z,1004.24
2023-12-02T00:19:43.944Z,1004.21
2023-12-02T00:20:43.843Z,1004.23
2023-12-02T00:21:43.818Z,1004.20
2023-12-02T00:22:43.815Z,1004.18
2023-12-02T00:23:43.812Z,1004.22
2023-12-02T00:24:43.795Z,1004.20
2023-12-02T00:25:43.785Z,1004.18
2023-12-02T00:26:43.782Z,1004.18
2023-12-02T00:27:43.765Z,1004.17
2023-12-02T00:28:43.762Z,1004.16
2023-12-02T00:29:43.751Z,1004.14
2023-12-02T00:30:43.770Z,1004.12
2023-12-02T00:31:43.742Z,1004.14
2023-12-02T00:32:43.772Z,1004.12
2023-12-02T00:33:43.786Z,1004.13
2023-12-02T00:34:43.742Z,1004.11
2023-12-02T00:35:43.714Z,1004.13
2023-12-02T00:36:43.689Z,1004.10
2023-12-02T00:37:43.720Z,1004.06
2023-12-02T00:38:43.681Z,1004.02
2023-12-02T00:39:43.660Z,1004.06
2023-12-02T00:40:43.652Z,1004.04
2023-12-02T00:41:43.664Z,1004.01
2023-12-02T00:42:43.644Z,1003.99
2023-12-02T00:43:43.640Z,1003.95
2023-12-02T00:44:43.618Z,1003.97
2023-12-02T00:45:43.610Z,1003.96
2023-12-02T00:46:43.611Z,1003.97
2023-12-02T00:47:43.607Z,1004.02
2023-12-02T00:48:43.629Z,1004.03
2023-12-02T00:49:43.633Z,1004.06
2023-12-02T00:50:43.571Z,1004.04
2023-12-02T00:51:43.590Z,1004.01
2023-12-02T00:52:43.552Z,1004.02
2023-12-02T00:53:43.542Z,1004.01
2023-12-02T00:54:43.567Z,1004.03
2023-12-02T00:55:43.522Z,1004.08
2023-12-02T00:56:43.513Z,1004.09
2023-12-02T00:57:43.503Z,1004.08
2023-12-02T00:58:43.502Z,1004.11
2023-12-02T00:59:43.486Z,1004.09
2023-12-02T01:00:43.482Z,1004.07
2023-12-02T01:01:43.474Z,1004.05
2023-12-02T01:02:43.471Z,1004.11
2023-12-02T01:03:43.462Z,1004.14
2023-12-02T01:04:43.497Z,1004.18
2023-12-02T01:05:43.455Z,1004.21
2023-12-02T01:06:43.424Z,1004.23
2023-12-02T01:07:43.440Z,1004.22
2023-12-02T01:08:43.415Z,1004.24
2023-12-02T01:09:43.398Z,1004.23
2023-12-02T01:10:43.391Z,1004.23
2023-12-02T01:11:43.389Z,1004.16
2023-12-02T01:12:43.381Z,1004.15
2023-12-02T01:13:43.510Z,1004.15
2023-12-02T01:14:43.355Z,1004.16
2023-12-02T01:15:43.345Z,1004.19
2023-12-02T01:16:43.363Z,1004.20
2023-12-02T01:17:43.344Z,1004.20
2023-12-02T01:18:43.453Z,1004.21
2023-12-02T01:19:43.392Z,1004.24
2023-12-02T01:20:43.313Z,1004.22
2023-12-02T01:21:43.302Z,1004.23
2023-12-02T01:22:43.290Z,1004.21
2023-12-02T01:23:43.310Z,1004.20
2023-12-02T01:24:43.275Z,1004.20
2023-12-02T01:25:43.263Z,1004.17
2023-12-02T01:26:43.264Z,1004.17
2023-12-02T01:27:43.246Z,1004.20
2023-12-02T01:28:43.241Z,1004.25
2023-12-02T01:29:43.229Z,1004.25
2023-12-02T01:30:43.228Z,1004.29
2023-12-02T01:31:43.216Z,1004.30
2023-12-02T01:32:43.221Z,1004.28
2023-12-02T01:33:43.294Z,1004.28
2023-12-02T01:34:43.196Z,1004.31
2023-12-02T01:35:43.176Z,1004.28
2023-12-02T01:36:43.166Z,1004.23
2023-12-02T01:37:43.162Z,1004.26
2023-12-02T01:38:43.155Z,1004.32
2023-12-02T01:39:43.160Z,1004.34
2023-12-02T01:40:43.135Z,1004.34
2023-12-02T01:41:43.119Z,1004.30
2023-12-02T01:42:43.111Z,1004.25
2023-12-02T01:43:43.098Z,1004.25
2023-12-02T01:44:43.102Z,1004.24
2023-12-02T01:45:43.077Z,1004.23
2023-12-02T01:46:43.079Z,1004.21
2023-12-02T01:47:43.089Z,1004.19
2023-12-02T01:48:43.137Z,1004.19
2023-12-02T01:49:43.067Z,1004.16
2023-12-02T01:50:43.075Z,1004.11
2023-12-02T01:51:43.031Z,1004.13
2023-12-02T01:52:43.022Z,1004.09
2023-12-02T01:53:43.019Z,1004.10
2023-12-02T01:54:43.002Z,1004.12
2023-12-02T01:55:43.052Z,1004.14
2023-12-02T01:56:42.982Z,1004.11
2023-12-02T01:57:42.974Z,1004.17
2023-12-02T01:58:42.985Z,1004.18
2023-12-02T01:59:42.962Z,1004.21
2023-12-02T02:00:42.946Z,1004.19
2023-12-02T02:01:42.979Z,1004.18
2023-12-02T02:02:42.925Z,1004.22
2023-12-02T02:03:42.923Z,1004.23
2023-12-02T02:04:43.050Z,1004.22
2023-12-02T02:05:42.893Z,1004.26
2023-12-02T02:06:42.904Z,1004.33
2023-12-02T02:07:42.890Z,1004.31
2023-12-02T02:08:42.873Z,1004.34
2023-12-02T02:09:42.866Z,1004.36
2023-12-02T02:10:42.862Z,1004.35
2023-12-02T02:11:42.867Z,1004.40
2023-12-02T02:12:42.838Z,1004.38
2023-12-02T02:13:42.838Z,1004.40
2023-12-02T02:14:42.830Z,1004.38
2023-12-02T02:15:42.872Z,1004.44
2023-12-02T02:16:42.801Z,1004.42
2023-12-02T02:17:42.834Z,1004.42
2023-12-02T02:18:42.861Z,1004.40
2023-12-02T02:19:42.806Z,1004.42
2023-12-02T02:20:42.776Z,1004.44
2023-12-02T02:21:42.757Z,1004.42
2023-12-02T02:22:42.751Z,1004.43
2023-12-02T02:23:42.749Z,1004.40
2023-12-02T02:24:42.735Z,1004.41
2023-12-02T02:25:42.749Z,1004.42
2023-12-02T02:26:42.720Z,1004.36
2023-12-02T02:27:42.724Z,1004.39
2023-12-02T02:28:42.694Z,1004.37
2023-12-02T02:29:42.679Z,1004.37
2023-12-02T02:30:42.677Z,1004.37
2023-12-02T02:31:42.663Z,1004.36
2023-12-02T02:32:42.699Z,1004.35
2023-12-02T02:33:42.685Z,1004.34
2023-12-02T02:34:42.706Z,1004.32
2023-12-02T02:35:42.632Z,1004.37
2023-12-02T02:36:42.618Z,1004.30
2023-12-02T02:37:42.636Z,1004.30
2023-12-02T02:38:42.601Z,1004.32
2023-12-02T02:39:42.595Z,1004.32
2023-12-02T02:40:42.599Z,1004.24
2023-12-02T02:41:42.627Z,1004.21
2023-12-02T02:42:42.618Z,1004.18
2023-12-02T02:43:42.621Z,1004.20
2023-12-02T02:44:42.675Z,1004.21
2023-12-02T02:45:42.557Z,1004.18
2023-12-02T02:46:42.531Z,1004.17
2023-12-02T02:47:42.657Z,1004.13
2023-12-02T02:48:42.626Z,1004.13
2023-12-02T02:49:42.513Z,1004.19
2023-12-02T02:50:42.497Z,1004.12
2023-12-02T02:51:42.504Z,1004.14
2023-12-02T02:52:42.497Z,1004.13
2023-12-02T02:53:42.480Z,1004.16
2023-12-02T02:54:42.503Z,1004.14
2023-12-02T02:55:42.453Z,1004.21
2023-12-02T02:56:42.445Z,1004.18
2023-12-02T02:57:42.428Z,1004.14
2023-12-02T02:58:42.422Z,1004.12
2023-12-02T02:59:42.435Z,1004.12
2023-12-02T03:00:42.414Z,1004.07
2023-12-02T03:01:42.448Z,1004.08
2023-12-02T03:02:42.393Z,1004.06
2023-12-02T03:03:42.374Z,1004.05
2023-12-02T03:04:42.436Z,1004.10
2023-12-02T03:05:42.390Z,1004.14
2023-12-02T03:06:42.457Z,1004.10
2023-12-02T03:07:42.360Z,1004.16
2023-12-02T03:08:42.341Z,1004.16
2023-12-02T03:09:42.338Z,1004.18
2023-12-02T03:10:42.320Z,1004.17
2023-12-02T03:11:42.298Z,1004.16
2023-12-02T03:12:42.297Z,1004.13
2023-12-02T03:13:42.286Z,1004.16
2023-12-02T03:14:42.292Z,1004.16
2023-12-02T03:15:42.341Z,1004.15
2023-12-02T03:16:42.272Z,1004.14
2023-12-02T03:17:42.307Z,1004.13
2023-12-02T03:18:42.305Z,1004.17
2023-12-02T03:19:42.289Z,1004.21
2023-12-02T03:20:42.234Z,1004.19
2023-12-02T03:21:42.214Z,1004.21
2023-12-02T03:22:42.215Z,1004.15
2023-12-02T03:23:42.194Z,1004.15
2023-12-02T03:24:42.189Z,1004.20
2023-12-02T03:25:42.189Z,1004.19
2023-12-02T03:26:42.165Z,1004.19
2023-12-02T03:27:42.158Z,1004.20
2023-12-02T03:28:42.159Z,1004.21
2023-12-02T03:29:42.144Z,1004.27
2023-12-02T03:30:42.141Z,1004.30
2023-12-02T03:31:42.256Z,1004.29
2023-12-02T03:32:42.138Z,1004.28
2023-12-02T03:33:42.123Z,1004.31
2023-12-02T03:34:42.124Z,1004.24
2023-12-02T03:35:42.083Z,1004.25
2023-12-02T03:36:42.077Z,1004.22
2023-12-02T03:37:42.065Z,1004.29
2023-12-02T03:38:42.081Z,1004.30
2023-12-02T03:39:42.051Z,1004.33
2023-12-02T03:40:42.041Z,1004.35
2023-12-02T03:41:42.036Z,1004.35
2023-12-02T03:42:42.070Z,1004.36
2023-12-02T03:43:52.201Z,1004.37
2023-12-02T03:44:42.004Z,1004.34
2023-12-02T03:45:42.042Z,1004.37
2023-12-02T03:46:41.978Z,1004.36
2023-12-02T03:47:42.033Z,1004.32
2023-12-02T03:48:42.127Z,1004.32
2023-12-02T03:49:41.967Z,1004.28
2023-12-02T03:50:41.968Z,1004.30
2023-12-02T03:51:41.929Z,1004.26
2023-12-02T03:52:41.928Z,1004.28
2023-12-02T03:53:41.988Z,1004.31
2023-12-02T03:54:41.924Z,1004.30
2023-12-02T03:55:41.915Z,1004.31
2023-12-02T03:56:41.910Z,1004.35
2023-12-02T03:57:41.916Z,1004.35
2023-12-02T03:58:41.875Z,1004.37
2023-12-02T03:59:41.864Z,1004.37
2023-12-02T04:00:41.891Z,1004.40
2023-12-02T04:01:41.871Z,1004.42
2023-12-02T04:02:42.002Z,1004.38
2023-12-02T04:03:41.907Z,1004.41
2023-12-02T04:04:41.904Z,1004.42
2023-12-02T04:05:41.810Z,1004.42
2023-12-02T04:06:41.877Z,1004.48
2023-12-02T04:07:41.897Z,1004.45
2023-12-02T04:08:41.780Z,1004.47
2023-12-02T04:09:41.781Z,1004.50
2023-12-02T04:10:41.785Z,1004.51
2023-12-02T04:11:41.755Z,1004.49
2023-12-02T04:12:41.764Z,1004.52
2023-12-02T04:13:41.747Z,1004.47
2023-12-02T04:14:41.788Z,1004.47
2023-12-02T04:15:41.735Z,1004.47
2023-12-02T04:16:41.720Z,1004.48
2023-12-02T04:17:41.757Z,1004.41
2023-12-02T04:18:41.776Z,1004.40
2023-12-02T04:19:41.734Z,1004.35
2023-12-02T04:20:41.668Z,1004.32
2023-12-02T04:21:41.698Z,1004.32
2023-12-02T04:22:41.652Z,1004.25
2023-12-02T04:23:41.655Z,1004.22
2023-12-02T04:24:41.639Z,1004.20
2023-12-02T04:25:41.619Z,1004.21
2023-12-02T04:26:41.610Z,1004.20
2023-12-02T04:27:41.621Z,1004.20
2023-12-02T04:28:41.599Z,1004.23
2023-12-02T04:29:41.582Z,1004.27
2023-12-02T04:30:41.589Z,1004.27
2023-12-02T04:31:41.568Z,1004.25
2023-12-02T04:32:41.686Z,1004.21
2023-12-02T04:33:41.746Z,1004.13
2023-12-02T04:34:41.577Z,1004.11
2023-12-02T04:35:41.560Z,1004.12
2023-12-02T04:36:41.530Z,1004.21
2023-12-02T04:37:41.512Z,1004.22
2023-12-02T04:38:41.500Z,1004.27
2023-12-02T04:39:41.545Z,1004.25
2023-12-02T04:40:41.485Z,1004.26
2023-12-02T04:41:41.474Z,1004.28
2023-12-02T04:42:41.465Z,1004.32
2023-12-02T04:43:41.461Z,1004.29
2023-12-02T04:44:41.447Z,1004.29
2023-12-02T04:45:41.483Z,1004.20
2023-12-02T04:46:41.424Z,1004.19
2023-12-02T04:47:41.467Z,1004.12
2023-12-02T04:48:41.424Z,1004.10
2023-12-02T04:49:41.464Z,1004.05
2023-12-02T04:50:41.389Z,1004.06
2023-12-02T04:51:41.411Z,1004.04
2023-12-02T04:52:41.366Z,1004.09
2023-12-02T04:53:41.355Z,1004.06
2023-12-02T04:54:41.396Z,1004.12
2023-12-02T04:55:41.340Z,1004.15
2023-12-02T04:56:41.341Z,1004.17
2023-12-02T04:57:41.324Z,1004.19
2023-12-02T04:58:41.326Z,1004.22
2023-12-02T04:59:41.299Z,1004.22
2023-12-02T05:00:41.349Z,1004.21
2023-12-02T05:01:41.306Z,1004.25
2023-12-02T05:02:41.288Z,1004.24
2023-12-02T05:03:41.350Z,1004.23
2023-12-02T05:04:41.253Z,1004.27
2023-12-02T05:05:41.254Z,1004.34
2023-12-02T05:06:41.319Z,1004.43
2023-12-02T05:07:41.253Z,1004.46
2023-12-02T05:08:41.213Z,1004.53
2023-12-02T05:09:41.237Z,1004.52
2023-12-02T05:10:41.200Z,1004.56
2023-12-02T05:11:41.191Z,1004.57
2023-12-02T05:12:41.290Z,1004.52
2023-12-02T05:13:41.166Z,1004.49
2023-12-02T05:14:41.196Z,1004.56
2023-12-02T05:15:44.469Z,1004.60
2023-12-02T05:16:41.135Z,1004.66
2023-12-02T05:17:41.170Z,1004.68
2023-12-02T05:18:41.215Z,1004.71
2023-12-02T05:19:41.202Z,1004.72
2023-12-02T05:20:41.102Z,1004.72
2023-12-02T05:21:41.145Z,1004.71
2023-12-02T05:22:41.110Z,1004.80
2023-12-02T05:23:41.108Z,1004.74
2023-12-02T05:24:41.127Z,1004.70
2023-12-02T05:25:41.056Z,1004.67
2023-12-02T05:26:41.046Z,1004.63
2023-12-02T05:27:41.101Z,1004.64
2023-12-02T05:28:41.023Z,1004.65
2023-12-02T05:29:41.019Z,1004.66
2023-12-02T05:30:41.049Z,1004.76
2023-12-02T05:31:41.025Z,1004.77
2023-12-02T05:32:41.054Z,1004.80
2023-12-02T05:33:40.997Z,1004.81
2023-12-02T05:34:41.063Z,1004.87
2023-12-02T05:35:40.964Z,1004.86
2023-12-02T05:36:40.977Z,1004.85
2023-12-02T05:37:40.937Z,1004.83
2023-12-02T05:38:40.935Z,1004.74
2023-12-02T05:39:40.970Z,1004.80
2023-12-02T05:40:40.930Z,1004.75
2023-12-02T05:41:40.912Z,1004.80
2023-12-02T05:42:40.959Z,1004.80
2023-12-02T05:43:40.898Z,1004.85
2023-12-02T05:44:40.880Z,1004.88
2023-12-02T05:45:40.969Z,1004.86
2023-12-02T05:46:40.858Z,1004.91
2023-12-02T05:47:40.987Z,1004.92
2023-12-02T05:48:40.967Z,1004.96
2023-12-02T05:49:40.836Z,1004.94
2023-12-02T05:50:40.827Z,1004.95
2023-12-02T05:51:40.917Z,1004.99
2023-12-02T05:52:40.800Z,1004.90
2023-12-02T05:53:40.808Z,1004.90
2023-12-02T05:54:40.802Z,1004.90
2023-12-02T05:55:40.803Z,1004.92
2023-12-02T05:56:40.771Z,1004.89
2023-12-02T05:57:40.799Z,1004.91
2023-12-02T05:58:40.737Z,1004.96
2023-12-02T05:59:40.756Z,1004.98
2023-12-02T06:00:40.751Z,1004.95
2023-12-02T06:01:40.731Z,1004.94
2023-12-02T06:02:40.712Z,1004.91
2023-12-02T06:03:40.771Z,1004.84
2023-12-02T06:04:40.709Z,1004.85
2023-12-02T06:05:40.680Z,1004.84
2023-12-02T06:06:40.728Z,1004.87
2023-12-02T06:07:40.660Z,1004.89
2023-12-02T06:08:40.653Z,1004.91
2023-12-02T06:09:40.671Z,1004.92
2023-12-02T06:10:40.633Z,1004.92
2023-12-02T06:11:40.643Z,1004.91
2023-12-02T06:12:40.631Z,1004.92
2023-12-02T06:13:40.601Z,1004.96
2023-12-02T06:14:40.591Z,1004.93
2023-12-02T06:15:40.654Z,1004.92
2023-12-02T06:16:40.576Z,1004.91
2023-12-02T06:17:40.719Z,1004.90
2023-12-02T06:18:40.673Z,1004.92
2023-12-02T06:19:40.546Z,1004.89
2023-12-02T06:20:40.548Z,1004.91
2023-12-02T06:21:40.580Z,1004.88
2023-12-02T06:22:40.512Z,1004.90
2023-12-02T06:23:40.545Z,1004.87
2023-12-02T06:24:40.529Z,1004.92
2023-12-02T06:25:40.493Z,1004.90
2023-12-02T06:26:40.478Z,1004.89
2023-12-02T06:27:40.544Z,1004.91
2023-12-02T06:28:40.463Z,1004.90
2023-12-02T06:29:40.450Z,1004.88
2023-12-02T06:30:40.453Z,1004.91
2023-12-02T06:31:40.452Z,1004.84
2023-12-02T06:32:40.428Z,1004.89
2023-12-02T06:33:40.438Z,1004.81
2023-12-02T06:34:40.436Z,1004.81
2023-12-02T06:35:40.392Z,1004.81
2023-12-02T06:36:40.419Z,1004.88
2023-12-02T06:37:40.399Z,1004.85
2023-12-02T06:38:40.385Z,1004.84
2023-12-02T06:39:40.420Z,1004.87
2023-12-02T06:40:40.352Z,1004.83
2023-12-02T06:41:40.340Z,1004.80
2023-12-02T06:42:40.375Z,1004.78
2023-12-02T06:43:40.397Z,1004.78
2023-12-02T06:44:42.588Z,1004.80
2023-12-02T06:45:40.365Z,1004.87
2023-12-02T06:46:40.313Z,1004.89
2023-12-02T06:47:40.319Z,1004.92
2023-12-02T06:48:40.406Z,1004.94
2023-12-02T06:49:40.316Z,1004.94
2023-12-02T06:50:40.261Z,1004.97
2023-12-02T06:51:40.279Z,1004.95
2023-12-02T06:52:40.237Z,1004.96
2023-12-02T06:53:40.229Z,1005.02
2023-12-02T06:54:40.343Z,1005.01
2023-12-02T06:55:40.210Z,1005.07
2023-12-02T06:56:40.196Z,1005.00
2023-12-02T06:57:40.260Z,1004.97
2023-12-02T06:58:40.186Z,1005.00
2023-12-02T06:59:40.215Z,1005.03
2023-12-02T07:00:40.186Z,1005.03
2023-12-02T07:01:40.186Z,1005.04
2023-12-02T07:02:40.142Z,1005.07
2023-12-02T07:03:40.152Z,1005.11
2023-12-02T07:04:40.152Z,1005.06
2023-12-02T07:05:40.151Z,1005.04
2023-12-02T07:06:40.163Z,1005.04
2023-12-02T07:07:40.115Z,1004.99
2023-12-02T07:08:40.133Z,1005.02
2023-12-02T07:09:40.096Z,1005.00
2023-12-02T07:10:40.063Z,1005.01
2023-12-02T07:11:40.063Z,1004.99
2023-12-02T07:12:40.073Z,1005.07
2023-12-02T07:13:40.053Z,1005.14
2023-12-02T07:14:40.028Z,1005.11
2023-12-02T07:15:41.917Z,1005.08
2023-12-02T07:16:40.005Z,1005.11
2023-12-02T07:17:40.071Z,1005.08
2023-12-02T07:18:40.065Z,1005.14
2023-12-02T07:19:40.020Z,1005.09
2023-12-02T07:20:39.972Z,1005.09
2023-12-02T07:21:39.988Z,1005.12
2023-12-02T07:22:39.968Z,1005.16
2023-12-02T07:23:39.941Z,1005.20
2023-12-02T07:24:39.965Z,1005.20
2023-12-02T07:25:39.931Z,1005.26
2023-12-02T07:26:39.921Z,1005.28
2023-12-02T07:27:39.957Z,1005.30
2023-12-02T07:28:39.896Z,1005.30
2023-12-02T07:30:39.915Z,1005.32
2023-12-02T07:31:39.899Z,1005.25
2023-12-02T07:32:39.880Z,1005.29
2023-12-02T07:33:39.872Z,1005.34
2023-12-02T07:34:39.902Z,1005.34
2023-12-02T07:35:39.841Z,1005.33
2023-12-02T07:36:39.819Z,1005.26
2023-12-02T07:37:39.854Z,1005.29
2023-12-02T07:38:39.810Z,1005.35
2023-12-02T07:39:39.805Z,1005.37
2023-12-02T07:40:39.839Z,1005.37
2023-12-02T07:41:39.776Z,1005.40
2023-12-02T07:42:39.766Z,1005.42
2023-12-02T07:43:39.850Z,1005.41
2023-12-02T07:44:40.062Z,1005.42
2023-12-02T07:45:39.741Z,1005.40
2023-12-02T07:46:39.838Z,1005.43
2023-12-02T07:47:39.950Z,1005.41
2023-12-02T07:48:39.761Z,1005.38
2023-12-02T07:49:39.807Z,1005.36
2023-12-02T07:50:39.733Z,1005.34
2023-12-02T07:51:39.692Z,1005.34
2023-12-02T07:52:39.715Z,1005.34
2023-12-02T07:53:39.746Z,1005.32
2023-12-02T07:54:39.662Z,1005.31
2023-12-02T07:55:39.679Z,1005.29
2023-12-02T07:56:39.642Z,1005.29
2023-12-02T07:57:39.634Z,1005.32
2023-12-02T07:58:39.668Z,1005.32
2023-12-02T07:59:39.612Z,1005.40
2023-12-02T08:00:39.604Z,1005.41
2023-12-02T08:01:39.667Z,1005.43
2023-12-02T08:02:39.662Z,1005.46
2023-12-02T08:03:39.702Z,1005.49
2023-12-02T08:04:39.610Z,1005.51
2023-12-02T08:06:39.546Z,1005.59
2023-12-02T08:07:39.579Z,1005.59
2023-12-02T08:08:39.522Z,1005.63
2023-12-02T08:09:39.532Z,1005.65
2023-12-02T08:10:39.535Z,1005.67
2023-12-02T08:11:39.497Z,1005.63
2023-12-02T08:12:39.495Z,1005.70
2023-12-02T08:13:39.495Z,1005.67
2023-12-02T08:14:39.470Z,1005.65
2023-12-02T08:15:39.468Z,1005.70
2023-12-02T08:16:39.501Z,1005.67
2023-12-02T08:17:39.498Z,1005.73
2023-12-02T08:18:39.436Z,1005.70
2023-12-02T08:19:39.512Z,1005.70
2023-12-02T08:20:39.456Z,1005.68
2023-12-02T08:21:39.408Z,1005.71
2023-12-02T08:22:39.435Z,1005.72
2023-12-02T08:23:39.396Z,1005.73
2023-12-02T08:24:39.384Z,1005.67
2023-12-02T08:25:39.376Z,1005.68
2023-12-02T08:26:39.362Z,1005.68
2023-12-02T08:27:39.356Z,1005.69
2023-12-02T08:28:39.365Z,1005.69
2023-12-02T08:29:39.344Z,1005.70
2023-12-02T08:30:39.340Z,1005.77
2023-12-02T08:31:39.335Z,1005.85
2023-12-02T08:32:39.341Z,1005.80
2023-12-02T08:33:39.312Z,1005.82
2023-12-02T08:34:39.364Z,1005.85
2023-12-02T08:35:39.323Z,1005.80
2023-12-02T08:36:39.281Z,1005.84
2023-12-02T08:37:39.330Z,1005.83
2023-12-02T08:38:39.261Z,1005.85
2023-12-02T08:39:39.239Z,1005.86
2023-12-02T08:40:39.240Z,1005.87
2023-12-02T08:41:39.254Z,1005.89
2023-12-02T08:42:39.219Z,1005.90
2023-12-02T08:43:39.244Z,1005.90
2023-12-02T08:44:39.211Z,1005.90
2023-12-02T08:45:39.206Z,1005.89
2023-12-02T08:46:39.234Z,1005.89
2023-12-02T08:47:39.227Z,1005.91
2023-12-02T08:48:39.193Z,1005.90
2023-12-02T08:49:39.206Z,1005.93
2023-12-02T08:50:39.156Z,1005.98
2023-12-02T08:51:39.168Z,1005.95
2023-12-02T08:52:39.178Z,1005.99
2023-12-02T08:53:39.128Z,1005.99
2023-12-02T08:54:39.117Z,1005.99
2023-12-02T08:55:39.127Z,1006.02
2023-12-02T08:56:39.101Z,1006.03
2023-12-02T08:57:39.091Z,1005.95
2023-12-02T08:58:39.135Z,1005.90
2023-12-02T08:59:39.085Z,1005.94
2023-12-02T09:00:39.074Z,1005.95
2023-12-02T09:01:39.134Z,1005.95
2023-12-02T09:02:39.119Z,1005.93
2023-12-02T09:03:39.048Z,1005.90
2023-12-02T09:04:39.054Z,1005.96
2023-12-02T09:05:39.023Z,1005.94
2023-12-02T09:06:41.560Z,1005.95
2023-12-02T09:07:39.074Z,1005.90
2023-12-02T09:08:39.115Z,1005.88
2023-12-02T09:09:38.992Z,1005.93
2023-12-02T09:10:39.028Z,1005.91
2023-12-02T09:11:39.001Z,1005.96
2023-12-02T09:12:38.974Z,1005.92
2023-12-02T09:13:38.984Z,1005.92
2023-12-02T09:14:38.966Z,1005.87
2023-12-02T09:15:38.942Z,1005.93
2023-12-02T09:16:38.945Z,1005.90
2023-12-02T09:17:38.993Z,1005.92
2023-12-02T09:18:38.938Z,1005.98
2023-12-02T09:19:38.950Z,1005.94
2023-12-02T09:20:38.910Z,1005.99
2023-12-02T09:21:38.929Z,1005.97
2023-12-02T09:22:38.923Z,1005.93
2023-12-02T09:23:38.899Z,1005.91
2023-12-02T09:24:38.880Z,1005.90
2023-12-02T09:25:38.939Z,1005.89
2023-12-02T09:26:38.859Z,1005.87
2023-12-02T09:27:38.850Z,1005.90
2023-12-02T09:28:38.878Z,1005.87
2023-12-02T09:29:38.975Z,1005.80
2023-12-02T09:30:38.831Z,1005.81
2023-12-02T09:31:38.829Z,1005.76
2023-12-02T09:32:38.867Z,1005.77
2023-12-02T09:33:39.326Z,1005.80
2023-12-02T09:34:38.829Z,1005.86
2023-12-02T09:35:38.801Z,1005.85
2023-12-02T09:36:38.781Z,1005.90
2023-12-02T09:37:38.801Z,1005.92
2023-12-02T09:38:38.764Z,1005.94
2023-12-02T09:39:38.772Z,1005.97
2023-12-02T09:40:39.071Z,1005.97
2023-12-02T09:41:38.740Z,1005.98
2023-12-02T09:42:38.761Z,1006.00
2023-12-02T09:43:38.795Z,1006.04
2023-12-02T09:44:38.730Z,1005.96
2023-12-02T09:45:38.710Z,1006.05
2023-12-02T09:46:38.732Z,1006.05
2023-12-02T09:47:38.707Z,1006.07
2023-12-02T09:48:38.731Z,1006.05
2023-12-02T09:49:38.724Z,1006.07
2023-12-02T09:50:38.696Z,1006.03
2023-12-02T09:51:38.679Z,1006.09
2023-12-02T09:52:38.714Z,1006.11
2023-12-02T09:53:38.649Z,1006.10
2023-12-02T09:54:38.665Z,1006.05
2023-12-02T09:55:38.818Z,1006.07
2023-12-02T09:56:38.636Z,1006.07
2023-12-02T09:57:38.625Z,1006.09
2023-12-02T09:58:38.654Z,1006.12
2023-12-02T09:59:38.608Z,1006.18
2023-12-02T10:00:38.624Z,1006.17
2023-12-02T10:01:38.678Z,1006.17
2023-12-02T10:02:38.634Z,1006.16
2023-12-02T10:03:38.579Z,1006.16
2023-12-02T10:04:38.646Z,1006.15
2023-12-02T10:05:38.594Z,1006.10
2023-12-02T10:06:38.580Z,1006.09
2023-12-02T10:07:38.580Z,1006.09
2023-12-02T10:08:38.555Z,1006.10
2023-12-02T10:09:38.549Z,1006.07
2023-12-02T10:10:38.551Z,1006.08
2023-12-02T10:11:38.544Z,1006.11
2023-12-02T10:12:38.527Z,1006.08
2023-12-02T10:13:38.530Z,1006.11
2023-12-02T10:14:38.509Z,1006.15
2023-12-02T10:15:38.493Z,1006.12
2023-12-02T10:16:38.503Z,1006.12
2023-12-02T10:17:38.545Z,1006.06
2023-12-02T10:18:38.571Z,1006.05
2023-12-02T10:19:38.504Z,1006.02
2023-12-02T10:20:38.473Z,1006.03
2023-12-02T10:21:38.446Z,1006.00
2023-12-02T10:22:38.465Z,1005.98
2023-12-02T10:23:38.434Z,1005.94
2023-12-02T10:24:38.431Z,1005.97
2023-12-02T10:25:38.462Z,1005.94
2023-12-02T10:26:38.419Z,1005.91
2023-12-02T10:27:38.432Z,1005.92
2023-12-02T10:28:38.446Z,1005.94
2023-12-02T10:29:38.391Z,1005.92
2023-12-02T10:30:38.396Z,1005.91
2023-12-02T10:31:38.406Z,1005.94
2023-12-02T10:32:38.397Z,1005.94
2023-12-02T10:33:38.366Z,1005.93
2023-12-02T10:34:38.510Z,1005.90
2023-12-02T10:35:38.364Z,1005.93
2023-12-02T10:36:38.347Z,1005.93
2023-12-02T10:37:38.359Z,1005.93
2023-12-02T10:38:38.330Z,1005.94
2023-12-02T10:39:38.328Z,1005.91
2023-12-02T10:40:38.346Z,1005.91
2023-12-02T10:41:38.311Z,1005.94
2023-12-02T10:42:38.307Z,1005.93
2023-12-02T10:43:38.331Z,1005.91
2023-12-02T10:44:38.295Z,1005.95
2023-12-02T10:45:38.282Z,1005.89
2023-12-02T10:46:38.317Z,1005.90
2023-12-02T10:47:38.302Z,1005.89
2023-12-02T10:48:38.308Z,1005.84
2023-12-02T10:49:38.319Z,1005.87
2023-12-02T10:50:38.248Z,1005.84
2023-12-02T10:51:38.239Z,1005.83
2023-12-02T10:52:41.158Z,1005.87
2023-12-02T10:53:38.343Z,1005.86
2023-12-02T10:54:38.224Z,1005.85
2023-12-02T10:55:38.221Z,1005.84
2023-12-02T10:56:38.207Z,1005.86
2023-12-02T10:57:38.217Z,1005.81
2023-12-02T10:58:38.196Z,1005.80
2023-12-02T10:59:38.205Z,1005.81
2023-12-02T11:00:38.279Z,1005.79
2023-12-02T11:01:38.197Z,1005.78
2023-12-02T11:02:38.160Z,1005.76
2023-12-02T11:03:38.153Z,1005.79
2023-12-02T11:04:38.187Z,1005.73
2023-12-02T11:05:38.208Z,1005.80
2023-12-02T11:06:38.287Z,1005.77
2023-12-02T11:07:38.126Z,1005.79
2023-12-02T11:08:38.130Z,1005.77
2023-12-02T11:09:38.109Z,1005.74
2023-12-02T11:10:38.123Z,1005.79
2023-12-02T11:11:38.114Z,1005.76
2023-12-02T11:12:38.127Z,1005.76
2023-12-02T11:13:38.088Z,1005.75
2023-12-02T11:14:38.090Z,1005.73
2023-12-02T11:15:38.144Z,1005.80
2023-12-02T11:16:38.067Z,1005.77
2023-12-02T11:17:38.082Z,1005.78
2023-12-02T11:18:38.100Z,1005.72
2023-12-02T11:19:38.071Z,1005.75
2023-12-02T11:20:38.044Z,1005.81
2023-12-02T11:21:38.042Z,1005.79
2023-12-02T11:22:38.038Z,1005.78
2023-12-02T11:23:38.011Z,1005.76
2023-12-02T11:24:38.015Z,1005.77
2023-12-02T11:25:37.998Z,1005.77
2023-12-02T11:26:38.011Z,1005.76
2023-12-02T11:27:38.040Z,1005.76
2023-12-02T11:28:37.976Z,1005.75
2023-12-02T11:29:37.974Z,1005.70
2023-12-02T11:30:38.175Z,1005.72
2023-12-02T11:31:37.979Z,1005.74
2023-12-02T11:32:37.983Z,1005.75
2023-12-02T11:33:38.162Z,1005.73
2023-12-02T11:34:37.983Z,1005.71
2023-12-02T11:35:37.921Z,1005.73
2023-12-02T11:36:37.956Z,1005.73
2023-12-02T11:37:37.908Z,1005.73
2023-12-02T11:38:37.898Z,1005.71
2023-12-02T11:39:40.383Z,1005.75
2023-12-02T11:40:37.900Z,1005.75
2023-12-02T11:41:37.880Z,1005.73
2023-12-02T11:42:37.923Z,1005.74
2023-12-02T11:43:37.866Z,1005.72
2023-12-02T11:44:37.856Z,1005.70
2023-12-02T11:45:37.883Z,1005.77
2023-12-02T11:46:37.885Z,1005.76
2023-12-02T11:47:37.950Z,1005.74
2023-12-02T11:48:37.978Z,1005.69
2023-12-02T11:49:37.913Z,1005.72
2023-12-02T11:50:38.970Z,1005.69
2023-12-02T11:51:37.851Z,1005.69
2023-12-02T11:52:37.840Z,1005.64
2023-12-02T11:53:37.784Z,1005.64
2023-12-02T11:54:37.828Z,1005.69
2023-12-02T11:55:37.773Z,1005.68
2023-12-02T11:56:37.764Z,1005.69
2023-12-02T11:57:37.814Z,1005.70
2023-12-02T11:58:37.757Z,1005.74
2023-12-02T11:59:37.747Z,1005.71
2023-12-02T12:00:37.862Z,1005.71
2023-12-02T12:01:37.764Z,1005.70
2023-12-02T12:02:39.757Z,1005.71
2023-12-02T12:03:37.832Z,1005.72
2023-12-02T12:04:37.827Z,1005.72
2023-12-02T12:05:37.728Z,1005.68
2023-12-02T12:06:37.839Z,1005.70
2023-12-02T12:07:37.676Z,1005.71